Iowa, Louisiana
Current Conditions -  °F | °C
As of 3:55 AM on Saturday 25 Oct 2014 (Local Time) from KCWF Reporting Station
Clear Clear  
Wind Chill: 52°   Ceiling: Unl
Heat Index: 52°   Visibility: 10mi
Dew Point: 51°   Wind: 0mph
Humidity: 96%   Direction: NA
Pressure: 30.12"   Gusts: NA
Location:  30.24°N, 93.01°W
Report Text: KCWF 250855Z AUTO 00000KT 10SM CLR 11/10 A3012 RMK AO2 T01100104
Loading
Personal Weather Stations






























Interactive Weather Map
Tropical Storm Tracking
New forecast layout! Learn more

10-Day Weather Forecast

Advertisements
Track Severe Weather on mobile